Wimauma, Florida
Current Conditions -  °F | °C
As of 10:58 PM on Tuesday 25 Nov 2014 (Local Time) from KMCF Reporting Station
Light Rain Light Rain  
Wind Chill: 70°   Ceiling: 3100
Heat Index: 70°   Visibility: 10mi
Dew Point: 70°   Wind: 8mph
Humidity: 100%   Direction: 160°SSE
Pressure: 29.88"   Gusts: NA
Location:  27.71°N, 82.3°W
Report Text: KMCF 260358Z AUTO 16007KT 10SM -RA FEW003 SCT016 BKN031 21/21 A2988 RMK AO2 LTG DSNT E SLP121 P0000 T02130213
Loading
Personal Weather Stations






























Interactive Weather Map New forecast layout! Learn more

10-Day Weather Forecast

Advertisements
Track Severe Weather on mobile